createdAt,value
2019-02-20T00:05:20.028Z,2.40
2019-02-20T00:08:08.731Z,3.60
2019-02-20T00:11:18.033Z,4.47
2019-02-20T00:14:07.406Z,4.10
2019-02-20T00:16:56.116Z,3.00
2019-02-20T00:22:47.988Z,3.00
2019-02-20T00:25:29.724Z,2.87
2019-02-20T00:30:43.630Z,3.17
2019-02-20T00:33:25.135Z,3.00
2019-02-20T00:36:14.619Z,3.90
2019-02-20T00:42:12.794Z,3.63
2019-02-20T00:45:20.226Z,2.83
2019-02-20T00:48:27.775Z,3.10
2019-02-20T00:54:35.904Z,4.00
2019-02-20T00:57:05.999Z,4.00
2019-02-20T01:06:11.358Z,3.53
2019-02-20T01:09:00.231Z,4.10
2019-02-20T01:11:48.975Z,3.67
2019-02-20T01:14:19.028Z,6.80
2019-02-20T01:16:48.779Z,3.93
2019-02-20T01:19:18.593Z,4.03
2019-02-20T01:21:48.699Z,4.63
2019-02-20T01:24:20.243Z,4.57
2019-02-20T01:26:50.121Z,4.13
2019-02-20T01:29:24.305Z,3.33
2019-02-20T01:31:54.090Z,3.73
2019-02-20T01:34:25.207Z,3.77
2019-02-20T01:36:55.782Z,4.20
2019-02-20T01:39:27.624Z,4.00
2019-02-20T01:41:57.563Z,3.97
2019-02-20T01:44:31.853Z,3.87
2019-02-20T01:47:02.091Z,3.40
2019-02-20T01:49:32.928Z,4.23
2019-02-20T01:52:02.893Z,3.47
2019-02-20T01:54:35.762Z,3.33
2019-02-20T01:57:05.564Z,4.40
2019-02-20T01:59:39.557Z,3.90
2019-02-20T02:02:09.302Z,4.30
2019-02-20T02:04:42.170Z,4.10
2019-02-20T02:07:12.138Z,3.40
2019-02-20T02:09:44.469Z,4.03
2019-02-20T02:12:14.338Z,4.30
2019-02-20T02:14:47.919Z,3.80
2019-02-20T02:17:17.809Z,4.87
2019-02-20T02:19:50.286Z,4.23
2019-02-20T02:22:20.026Z,3.77
2019-02-20T02:24:53.316Z,3.97
2019-02-20T02:27:23.236Z,4.60
2019-02-20T02:29:55.878Z,4.30
2019-02-20T02:32:25.850Z,4.50
2019-02-20T02:34:59.940Z,4.97
2019-02-20T02:37:29.705Z,5.07
2019-02-20T02:40:02.163Z,5.30
2019-02-20T02:42:31.841Z,4.43
2019-02-20T02:45:04.799Z,4.37
2019-02-20T02:47:35.993Z,4.27
2019-02-20T02:50:08.329Z,5.53
2019-02-20T02:52:38.291Z,6.03
2019-02-20T02:55:13.337Z,5.50
2019-02-20T02:58:02.270Z,5.17
2019-02-20T03:00:50.933Z,6.57
2019-02-20T03:03:39.666Z,6.47
2019-02-20T03:06:28.602Z,5.23
2019-02-20T03:08:58.507Z,6.10
2019-02-20T03:11:47.240Z,6.33
2019-02-20T03:14:35.918Z,5.10
2019-02-20T03:17:24.656Z,6.40
2019-02-20T03:20:13.363Z,6.17
2019-02-20T03:23:02.393Z,6.53
2019-02-20T03:25:32.207Z,6.47
2019-02-20T03:30:40.911Z,6.97
2019-02-20T03:33:10.789Z,6.33
2019-02-20T03:35:59.554Z,7.27
2019-02-20T03:38:49.598Z,6.13
2019-02-20T03:41:36.502Z,7.23
2019-02-20T03:44:17.640Z,6.67
2019-02-20T03:46:58.954Z,6.63
2019-02-20T03:52:22.921Z,6.93
2019-02-20T03:54:52.734Z,7.50
2019-02-20T03:58:01.736Z,6.80
2019-02-20T04:00:50.648Z,8.43
2019-02-20T04:03:39.562Z,6.93
2019-02-20T04:06:28.410Z,8.00
2019-02-20T04:08:58.535Z,7.97
2019-02-20T04:11:28.315Z,8.83
2019-02-20T04:13:58.148Z,8.60
2019-02-20T04:16:28.241Z,8.87
2019-02-20T04:19:16.890Z,8.67
2019-02-20T04:22:06.097Z,8.90
2019-02-20T04:24:35.915Z,9.07
2019-02-20T04:27:24.728Z,9.67
2019-02-20T04:30:13.827Z,9.10
2019-02-20T04:33:08.062Z,10.80
2019-02-20T04:35:56.771Z,10.73
2019-02-20T04:38:26.759Z,10.33
2019-02-20T04:41:15.541Z,10.60
2019-02-20T04:44:04.395Z,9.90
2019-02-20T04:46:53.042Z,10.43
2019-02-20T04:49:22.818Z,10.83
2019-02-20T04:51:52.620Z,11.13
2019-02-20T04:57:32.770Z,11.63
2019-02-20T05:00:20.172Z,10.03
2019-02-20T05:02:57.988Z,12.30
2019-02-20T05:05:28.214Z,11.10
2019-02-20T05:08:16.953Z,12.10
2019-02-20T05:10:47.052Z,11.80
2019-02-20T05:16:45.005Z,12.27
2019-02-20T05:19:34.067Z,11.93
2019-02-20T05:22:22.826Z,12.17
2019-02-20T05:24:52.586Z,11.17
2019-02-20T05:27:41.291Z,11.90
2019-02-20T05:33:20.545Z,11.90
2019-02-20T05:35:50.312Z,12.97
2019-02-20T05:38:20.208Z,12.47
2019-02-20T05:40:50.379Z,13.70
2019-02-20T05:43:20.175Z,12.57
2019-02-20T05:45:50.016Z,14.30
2019-02-20T05:48:20.123Z,12.63
2019-02-20T05:50:51.524Z,13.60
2019-02-20T05:53:21.341Z,13.03
2019-02-20T05:55:54.111Z,11.93
2019-02-20T05:58:24.732Z,13.20
2019-02-20T06:00:57.919Z,13.13
2019-02-20T06:03:27.769Z,13.37
2019-02-20T06:06:01.695Z,13.53
2019-02-20T06:08:31.931Z,13.43
2019-02-20T06:11:14.379Z,14.00
2019-02-20T06:13:36.920Z,13.27
2019-02-20T06:16:08.851Z,13.73
2019-02-20T06:18:38.668Z,15.50
2019-02-20T06:21:13.451Z,14.33
2019-02-20T06:23:43.290Z,14.67
2019-02-20T06:26:15.696Z,14.50
2019-02-20T06:28:45.734Z,15.23
2019-02-20T06:31:19.045Z,14.50
2019-02-20T06:33:49.082Z,15.77
2019-02-20T06:36:19.890Z,15.47
2019-02-20T06:38:49.695Z,16.03
2019-02-20T06:41:24.023Z,16.33
2019-02-20T06:43:54.144Z,15.67
2019-02-20T06:46:24.755Z,15.57
2019-02-20T06:48:54.539Z,17.23
2019-02-20T06:51:27.521Z,15.70
2019-02-20T06:53:57.587Z,17.93
2019-02-20T06:56:31.930Z,16.53
2019-02-20T06:59:01.911Z,16.57
2019-02-20T07:01:34.297Z,17.03
2019-02-20T07:04:04.062Z,16.40
2019-02-20T07:06:41.815Z,17.03
2019-02-20T07:09:48.154Z,18.27
2019-02-20T07:12:46.369Z,16.73
2019-02-20T07:16:02.060Z,18.20
2019-02-20T07:19:10.109Z,16.97
2019-02-20T07:22:25.864Z,17.13
2019-02-20T07:25:10.324Z,17.10
2019-02-20T07:28:21.807Z,17.50
2019-02-20T07:30:52.456Z,16.67
2019-02-20T07:33:22.316Z,17.90
2019-02-20T07:35:54.271Z,16.40
2019-02-20T07:38:24.412Z,17.63
2019-02-20T07:40:58.409Z,16.63
2019-02-20T07:43:28.276Z,16.47
2019-02-20T07:46:16.951Z,17.17
2019-02-20T07:48:46.783Z,16.37
2019-02-20T07:51:35.660Z,15.13
2019-02-20T07:54:45.478Z,16.00
2019-02-20T07:57:15.815Z,14.67
2019-02-20T08:02:59.603Z,14.10
2019-02-20T08:05:29.691Z,14.83
2019-02-20T08:07:59.516Z,15.17
2019-02-20T08:10:29.727Z,14.17
2019-02-20T08:12:59.598Z,13.83
2019-02-20T08:15:29.438Z,12.80
2019-02-20T08:18:19.321Z,13.47
2019-02-20T08:20:49.193Z,13.57
2019-02-20T08:23:38.028Z,13.53
2019-02-20T08:26:07.907Z,13.20
2019-02-20T08:28:38.064Z,12.87
2019-02-20T08:31:08.594Z,12.67
2019-02-20T08:33:38.406Z,12.83
2019-02-20T08:36:27.274Z,13.23
2019-02-20T08:38:57.151Z,13.30
2019-02-20T08:41:46.037Z,12.60
2019-02-20T08:44:39.027Z,12.30
2019-02-20T08:47:10.348Z,12.40
2019-02-20T08:49:40.258Z,12.13
2019-02-20T08:52:10.227Z,12.33
2019-02-20T08:54:40.605Z,11.70
2019-02-20T08:57:10.487Z,12.47
2019-02-20T08:59:41.933Z,11.00
2019-02-20T09:02:12.175Z,11.80
2019-02-20T09:04:44.098Z,11.40
2019-02-20T09:07:14.852Z,10.23
2019-02-20T09:09:46.223Z,11.10
2019-02-20T09:12:16.140Z,11.07
2019-02-20T09:15:05.110Z,9.00
2019-02-20T09:17:54.158Z,9.73
2019-02-20T09:20:24.151Z,10.40
2019-02-20T09:23:12.848Z,10.20
2019-02-20T09:25:42.899Z,8.97
2019-02-20T09:28:13.020Z,10.33
2019-02-20T09:30:42.833Z,10.40
2019-02-20T09:33:31.704Z,10.37
2019-02-20T09:36:20.863Z,9.20
2019-02-20T09:38:50.718Z,9.80
2019-02-20T09:41:21.034Z,10.13
2019-02-20T09:43:50.835Z,9.30
2019-02-20T09:46:40.918Z,9.07
2019-02-20T09:49:29.715Z,9.67
2019-02-20T09:51:59.699Z,9.43
2019-02-20T09:54:29.867Z,9.40
2019-02-20T09:56:59.875Z,9.17
2019-02-20T09:59:29.729Z,9.43
2019-02-20T10:02:18.663Z,8.77
2019-02-20T10:05:07.925Z,9.97
2019-02-20T10:07:37.996Z,8.93
2019-02-20T10:10:09.071Z,8.20
2019-02-20T10:12:39.027Z,8.70
2019-02-20T10:15:10.496Z,8.10
2019-02-20T10:17:40.267Z,8.63
2019-02-20T10:20:10.769Z,7.97
2019-02-20T10:22:43.183Z,8.50
2019-02-20T10:25:13.144Z,7.90
2019-02-20T10:27:43.096Z,8.50
2019-02-20T10:30:15.131Z,9.23
2019-02-20T10:32:45.062Z,7.77
2019-02-20T10:35:15.241Z,8.47
2019-02-20T10:37:45.527Z,8.73
2019-02-20T10:40:15.426Z,8.53
2019-02-20T10:42:45.541Z,8.53
2019-02-20T10:45:15.676Z,8.60
2019-02-20T10:47:45.848Z,7.67
2019-02-20T10:50:16.335Z,8.47
2019-02-20T10:52:48.886Z,8.97
2019-02-20T10:55:55.064Z,7.87
2019-02-20T10:58:25.347Z,6.60
2019-02-20T11:01:09.439Z,7.53
2019-02-20T11:03:27.112Z,6.80
2019-02-20T11:05:57.171Z,6.33
2019-02-20T11:08:27.131Z,5.80
2019-02-20T11:11:08.831Z,6.70
2019-02-20T11:13:39.494Z,6.70
2019-02-20T11:16:09.335Z,7.10
2019-02-20T11:18:39.426Z,6.57
2019-02-20T11:21:09.809Z,5.87
2019-02-20T11:23:39.620Z,6.00
2019-02-20T11:26:17.542Z,5.53
2019-02-20T11:28:41.165Z,5.93
2019-02-20T11:31:11.226Z,6.23
2019-02-20T11:33:41.130Z,5.93
2019-02-20T11:36:29.847Z,6.50
2019-02-20T11:39:37.302Z,6.03
2019-02-20T11:45:06.209Z,7.40
2019-02-20T11:47:36.325Z,6.80
2019-02-20T11:50:07.778Z,7.67
2019-02-20T11:52:38.568Z,8.07
2019-02-20T11:55:09.902Z,7.73
2019-02-20T11:57:39.679Z,9.13
2019-02-20T12:00:10.522Z,7.50
2019-02-20T12:02:42.190Z,7.67
2019-02-20T12:05:12.235Z,8.00
2019-02-20T12:07:42.021Z,7.97
2019-02-20T12:10:12.854Z,8.20
2019-02-20T12:12:42.749Z,7.17
2019-02-20T12:15:13.736Z,9.03
2019-02-20T12:17:44.355Z,8.07
2019-02-20T12:20:14.348Z,7.97
2019-02-20T12:22:44.446Z,8.37
2019-02-20T12:25:16.000Z,7.27
2019-02-20T12:27:45.862Z,7.60
2019-02-20T12:30:15.833Z,8.27
2019-02-20T12:32:47.469Z,8.90
2019-02-20T12:35:17.353Z,8.07
2019-02-20T12:37:48.453Z,7.90
2019-02-20T12:40:18.711Z,7.97
2019-02-20T12:42:52.044Z,7.77
2019-02-20T12:45:21.871Z,8.23
2019-02-20T12:47:54.042Z,8.67
2019-02-20T12:50:24.794Z,8.77
2019-02-20T12:52:56.795Z,7.63
2019-02-20T12:55:28.297Z,7.67
2019-02-20T12:58:17.266Z,7.93
2019-02-20T13:00:47.249Z,7.20
2019-02-20T13:03:17.481Z,7.30
2019-02-20T13:05:47.428Z,6.83
2019-02-20T13:08:17.489Z,7.10
2019-02-20T13:10:47.648Z,6.40
2019-02-20T13:13:17.672Z,7.67
2019-02-20T13:15:47.649Z,7.50
2019-02-20T13:18:28.947Z,7.80
2019-02-20T13:20:59.264Z,7.13
2019-02-20T13:26:19.905Z,6.87
2019-02-20T13:28:49.734Z,7.07
2019-02-20T13:31:38.583Z,7.03
2019-02-20T13:34:27.443Z,7.27
2019-02-20T13:37:37.477Z,7.23
2019-02-20T13:40:26.680Z,7.40
2019-02-20T13:46:26.806Z,7.13
2019-02-20T13:49:06.116Z,6.07
2019-02-20T13:51:55.369Z,5.07
2019-02-20T13:54:45.341Z,4.83
2019-02-20T13:57:53.075Z,4.20
2019-02-20T14:00:42.459Z,4.90
2019-02-20T14:03:54.352Z,4.93
2019-02-20T14:06:43.733Z,4.40
2019-02-20T14:09:15.138Z,3.87
2019-02-20T14:11:47.766Z,4.00
2019-02-20T14:14:17.956Z,4.23
2019-02-20T14:16:47.790Z,4.63
2019-02-20T14:19:18.800Z,4.00
2019-02-20T14:21:50.982Z,4.00
2019-02-20T14:24:21.006Z,3.77
2019-02-20T14:26:53.565Z,3.90
2019-02-20T14:29:23.510Z,4.47
2019-02-20T14:31:56.176Z,3.80
2019-02-20T14:34:27.638Z,3.60
2019-02-20T14:36:57.806Z,3.83
2019-02-20T14:39:27.832Z,3.37
2019-02-20T14:42:03.781Z,3.17
2019-02-20T14:44:34.040Z,3.67
2019-02-20T14:47:05.187Z,3.83
2019-02-20T14:49:37.672Z,3.80
2019-02-20T14:52:07.902Z,4.30
2019-02-20T14:54:37.765Z,3.73
2019-02-20T14:57:19.323Z,4.50
2019-02-20T14:59:45.170Z,3.73
2019-02-20T15:02:17.741Z,4.57
2019-02-20T15:04:47.948Z,4.13
2019-02-20T15:07:18.182Z,4.23
2019-02-20T15:15:57.799Z,3.33
2019-02-20T15:18:27.799Z,7.53
2019-02-20T15:20:58.783Z,10.37
2019-02-20T15:23:29.045Z,7.17
2019-02-20T15:25:59.155Z,6.27
2019-02-20T15:28:48.150Z,5.10
2019-02-20T15:31:18.260Z,5.80
2019-02-20T15:33:48.137Z,5.33
2019-02-20T15:36:21.658Z,4.27
2019-02-20T15:39:10.462Z,4.47
2019-02-20T15:41:41.222Z,3.60
2019-02-20T15:44:12.396Z,4.00
2019-02-20T15:46:42.803Z,4.57
2019-02-20T15:49:40.216Z,2.97
2019-02-20T15:52:10.308Z,3.83
2019-02-20T15:54:59.262Z,4.07
2019-02-20T15:57:37.865Z,4.13
2019-02-20T16:00:23.484Z,3.63
2019-02-20T16:02:53.579Z,4.17
2019-02-20T16:06:03.194Z,3.83
2019-02-20T16:15:05.439Z,3.80
2019-02-20T16:18:13.714Z,4.40
2019-02-20T16:20:44.513Z,5.00
2019-02-20T16:23:25.825Z,3.90
2019-02-20T16:26:03.142Z,4.20
2019-02-20T16:28:34.222Z,4.90
2019-02-20T16:31:25.788Z,4.67
2019-02-20T16:33:56.356Z,4.90
2019-02-20T16:36:26.751Z,4.47
2019-02-20T16:39:17.858Z,4.50
2019-02-20T16:41:48.625Z,5.13
2019-02-20T16:44:19.719Z,4.63
2019-02-20T16:49:51.582Z,4.50
2019-02-20T16:52:24.787Z,4.43
2019-02-20T16:55:32.770Z,4.73
2019-02-20T16:58:04.028Z,4.30
2019-02-20T17:00:36.489Z,4.20
2019-02-20T17:03:06.788Z,4.83
2019-02-20T17:05:36.898Z,4.37
2019-02-20T17:08:44.941Z,4.37
2019-02-20T17:11:15.147Z,4.00
2019-02-20T17:14:04.285Z,4.27
2019-02-20T17:16:53.265Z,4.43
2019-02-20T17:19:26.353Z,4.67
2019-02-20T17:21:56.266Z,4.30
2019-02-20T17:24:26.608Z,5.20
2019-02-20T17:26:56.630Z,4.77
2019-02-20T17:29:45.441Z,4.60
2019-02-20T17:32:15.503Z,4.40
2019-02-20T17:34:59.852Z,4.70
2019-02-20T17:37:17.766Z,5.10
2019-02-20T17:39:47.680Z,5.93
2019-02-20T17:45:25.488Z,6.67
2019-02-20T17:48:14.357Z,6.30
2019-02-20T17:50:49.890Z,6.90
2019-02-20T17:53:21.784Z,6.33
2019-02-20T17:56:10.984Z,6.30
2019-02-20T17:58:59.824Z,6.37
2019-02-20T18:04:13.084Z,6.00
2019-02-20T18:06:43.105Z,5.70
2019-02-20T18:09:13.285Z,5.33
2019-02-20T18:11:43.870Z,5.77
2019-02-20T18:14:13.785Z,6.17
2019-02-20T18:16:44.645Z,5.07
2019-02-20T18:19:15.108Z,6.17
2019-02-20T18:21:45.006Z,5.67
2019-02-20T18:24:18.341Z,6.23
2019-02-20T18:26:48.809Z,5.10
2019-02-20T18:29:18.815Z,5.67
2019-02-20T18:32:26.952Z,5.57
2019-02-20T18:34:56.883Z,5.50
2019-02-20T18:37:27.054Z,6.43
2019-02-20T18:39:57.086Z,6.60
2019-02-20T18:42:26.898Z,5.87
2019-02-20T18:44:57.006Z,5.57
2019-02-20T18:47:26.942Z,6.23
2019-02-20T18:50:16.029Z,5.90
2019-02-20T18:56:13.204Z,5.23
2019-02-20T18:58:43.267Z,7.57
2019-02-20T19:01:32.623Z,7.33
2019-02-20T19:04:02.667Z,6.60
2019-02-20T19:06:34.113Z,6.17
2019-02-20T19:09:32.913Z,7.50
2019-02-20T19:13:02.073Z,6.73
2019-02-20T19:15:51.708Z,7.30
2019-02-20T19:19:02.756Z,8.13
2019-02-20T19:21:59.985Z,7.30
2019-02-20T19:25:07.165Z,8.73
2019-02-20T19:27:55.612Z,8.00
2019-02-20T19:31:02.501Z,9.07
2019-02-20T19:34:16.718Z,10.70
2019-02-20T19:37:09.638Z,8.77
2019-02-20T19:40:33.798Z,9.20
2019-02-20T19:43:34.958Z,9.93
2019-02-20T19:46:40.154Z,8.47
2019-02-20T19:49:46.882Z,7.73
2019-02-20T19:52:37.756Z,8.87
2019-02-20T19:55:46.972Z,8.40
2019-02-20T19:58:57.242Z,8.47
2019-02-20T20:02:27.550Z,7.57
2019-02-20T20:05:32.590Z,7.77
2019-02-20T20:08:21.456Z,7.70
2019-02-20T20:11:19.652Z,7.83
2019-02-20T20:14:18.433Z,6.73
2019-02-20T20:17:30.738Z,6.90
2019-02-20T20:20:31.386Z,6.53
2019-02-20T20:24:05.857Z,8.27
2019-02-20T20:27:32.510Z,7.77
2019-02-20T20:30:19.285Z,6.93
2019-02-20T20:33:00.590Z,7.13
2019-02-20T20:36:08.517Z,7.23
2019-02-20T20:39:23.266Z,7.63
2019-02-20T20:42:31.760Z,8.20
2019-02-20T20:52:10.930Z,7.43
2019-02-20T20:55:18.760Z,7.40
2019-02-20T20:58:26.429Z,7.83
2019-02-20T21:01:37.094Z,7.57
2019-02-20T21:04:44.912Z,8.33
2019-02-20T21:07:52.709Z,8.03
2019-02-20T21:11:00.444Z,8.83
2019-02-20T21:13:57.724Z,9.20
2019-02-20T21:17:05.496Z,7.90
2019-02-20T21:20:13.288Z,8.90
2019-02-20T21:23:21.094Z,8.83
2019-02-20T21:26:28.858Z,8.90
2019-02-20T21:29:36.676Z,9.47
2019-02-20T21:32:44.565Z,8.10
2019-02-20T21:36:11.461Z,8.03
2019-02-20T21:39:19.297Z,8.73
2019-02-20T21:45:27.688Z,8.53
2019-02-20T21:48:35.661Z,8.97
2019-02-20T21:51:43.524Z,8.87
2019-02-20T21:54:39.679Z,9.23
2019-02-20T21:57:22.025Z,8.80
2019-02-20T22:00:29.811Z,8.27
2019-02-20T22:03:37.852Z,7.70
2019-02-20T22:06:45.509Z,7.87
2019-02-20T22:09:58.173Z,8.67
2019-02-20T22:13:02.647Z,7.83
2019-02-20T22:15:54.731Z,7.73
2019-02-20T22:18:52.172Z,8.43
2019-02-20T22:25:38.217Z,7.77
2019-02-20T22:28:18.345Z,7.43
2019-02-20T22:31:44.769Z,7.80
2019-02-20T22:34:52.628Z,8.10
2019-02-20T22:37:33.528Z,7.40
2019-02-20T22:40:15.164Z,7.53
2019-02-20T22:42:56.630Z,7.80
2019-02-20T22:45:38.319Z,7.50
2019-02-20T22:48:19.865Z,6.77
2019-02-20T22:51:00.719Z,7.17
2019-02-20T22:53:42.455Z,7.23
2019-02-20T22:56:24.292Z,6.83
2019-02-20T22:59:05.736Z,7.43
2019-02-20T23:01:47.318Z,8.07
2019-02-20T23:04:28.617Z,7.07
2019-02-20T23:07:36.386Z,7.53
2019-02-20T23:10:35.318Z,7.70
2019-02-20T23:13:43.105Z,7.43
2019-02-20T23:16:43.367Z,7.13
2019-02-20T23:19:42.649Z,6.77
2019-02-20T23:22:31.605Z,6.77
2019-02-20T23:25:20.610Z,7.77
2019-02-20T23:28:09.537Z,7.43
2019-02-20T23:31:17.202Z,6.83
2019-02-20T23:34:06.139Z,7.03
2019-02-20T23:36:54.882Z,8.00
2019-02-20T23:39:43.787Z,7.57
2019-02-20T23:42:32.743Z,7.57
2019-02-20T23:45:14.252Z,7.23
2019-02-20T23:47:55.963Z,8.73
2019-02-20T23:50:37.512Z,8.30
2019-02-20T23:53:19.159Z,7.07
2019-02-20T23:56:00.694Z,7.77
2019-02-20T23:58:42.314Z,7.43
